Masonic Home, Kentucky
Current Conditions -  °F | °C
As of 7:56 AM on Monday 22 Dec 2014 (Local Time) from KSDF Reporting Station
Overcast Overcast  
Wind Chill: 38°   Ceiling: 3000
Heat Index: 38°   Visibility: 10mi
Dew Point: 31°   Wind: 0mph
Humidity: 76%   Direction: NA
Pressure: 29.98"   Gusts: NA
Location:  38.25°N, 85.76°W
Report Text: KSDF 221256Z 00000KT 10SM BKN030 OVC045 03/M01 A2998 RMK AO2 SLP155 T00331006
Loading
Personal Weather Stations






























Interactive Weather Map New forecast layout! Learn more

10-Day Weather Forecast

Advertisements
Track Severe Weather on mobile